createdAt,value
2019-02-16T00:00:09.728Z,55.50
2019-02-16T00:01:46.542Z,55.50
2019-02-16T00:03:21.699Z,55.50
2019-02-16T00:04:56.918Z,55.50
2019-02-16T00:06:32.419Z,55.50
2019-02-16T00:08:07.967Z,55.70
2019-02-16T00:09:43.472Z,55.60
2019-02-16T00:11:19.033Z,55.60
2019-02-16T00:12:54.275Z,55.60
2019-02-16T00:14:29.487Z,55.60
2019-02-16T00:16:05.789Z,55.70
2019-02-16T00:17:41.012Z,55.90
2019-02-16T00:19:16.231Z,56.00
2019-02-16T00:20:51.451Z,55.90
2019-02-16T00:22:26.671Z,56.00
2019-02-16T00:24:01.889Z,56.00
2019-02-16T00:25:37.111Z,56.20
2019-02-16T00:27:12.592Z,56.00
2019-02-16T00:28:47.816Z,56.20
2019-02-16T00:30:23.270Z,56.20
2019-02-16T00:31:58.434Z,56.20
2019-02-16T00:33:33.654Z,56.20
2019-02-16T00:35:08.873Z,56.20
2019-02-16T00:36:44.056Z,56.30
2019-02-16T00:38:19.247Z,56.30
2019-02-16T00:39:54.442Z,56.30
2019-02-16T00:41:29.657Z,56.60
2019-02-16T00:43:04.889Z,56.60
2019-02-16T00:44:40.129Z,56.70
2019-02-16T00:46:15.377Z,56.80
2019-02-16T00:47:50.537Z,56.90
2019-02-16T00:49:25.757Z,56.90
2019-02-16T00:51:01.266Z,56.90
2019-02-16T00:52:36.469Z,57.00
2019-02-16T00:54:11.685Z,57.00
2019-02-16T00:55:47.078Z,57.10
2019-02-16T00:57:22.265Z,57.20
2019-02-16T00:58:58.420Z,57.10
2019-02-16T01:00:33.895Z,57.10
2019-02-16T01:02:09.059Z,57.20
2019-02-16T01:03:44.262Z,57.70
2019-02-16T01:05:19.478Z,58.10
2019-02-16T01:06:54.699Z,58.20
2019-02-16T01:08:29.916Z,58.40
2019-02-16T01:10:07.930Z,58.50
2019-02-16T01:11:43.153Z,58.50
2019-02-16T01:13:18.367Z,58.90
2019-02-16T01:14:53.588Z,59.70
2019-02-16T01:16:28.784Z,59.50
2019-02-16T01:18:03.996Z,59.30
2019-02-16T01:19:39.243Z,59.00
2019-02-16T01:21:22.530Z,58.60
2019-02-16T01:22:51.304Z,58.40
2019-02-16T01:24:26.549Z,58.20
2019-02-16T01:26:01.735Z,58.00
2019-02-16T01:27:37.245Z,57.80
2019-02-16T01:29:12.691Z,57.80
2019-02-16T01:30:48.133Z,57.80
2019-02-16T01:32:23.610Z,57.70
2019-02-16T01:33:58.819Z,58.20
2019-02-16T01:35:34.045Z,57.70
2019-02-16T01:37:09.273Z,57.60
2019-02-16T01:38:44.482Z,57.60
2019-02-16T01:40:19.779Z,57.60
2019-02-16T01:41:55.011Z,57.70
2019-02-16T01:43:30.590Z,57.80
2019-02-16T01:45:07.985Z,57.90
2019-02-16T01:46:44.430Z,58.10
2019-02-16T01:48:19.648Z,58.00
2019-02-16T01:49:55.812Z,58.20
2019-02-16T01:51:32.173Z,58.20
2019-02-16T01:53:07.577Z,58.20
2019-02-16T01:54:42.794Z,58.10
2019-02-16T01:56:18.012Z,58.10
2019-02-16T01:57:53.238Z,58.10
2019-02-16T01:59:28.452Z,58.10
2019-02-16T02:01:03.676Z,58.10
2019-02-16T02:02:39.342Z,58.20
2019-02-16T02:04:14.885Z,58.20
2019-02-16T02:05:50.101Z,58.20
2019-02-16T02:07:25.293Z,58.30
2019-02-16T02:09:01.504Z,58.40
2019-02-16T02:10:39.477Z,58.40
2019-02-16T02:12:14.830Z,58.50
2019-02-16T02:13:50.045Z,58.50
2019-02-16T02:15:25.550Z,58.40
2019-02-16T02:17:00.748Z,58.60
2019-02-16T02:18:35.967Z,58.60
2019-02-16T02:20:11.171Z,58.60
2019-02-16T02:21:46.374Z,59.20
2019-02-16T02:23:21.537Z,58.50
2019-02-16T02:24:56.756Z,58.40
2019-02-16T02:26:31.946Z,58.40
2019-02-16T02:28:07.118Z,58.40
2019-02-16T02:29:42.333Z,58.40
2019-02-16T02:31:17.547Z,58.60
2019-02-16T02:32:53.039Z,58.60
2019-02-16T02:34:28.257Z,58.60
2019-02-16T02:36:03.476Z,58.60
2019-02-16T02:37:39.594Z,58.60
2019-02-16T02:39:15.803Z,58.60
2019-02-16T02:40:50.995Z,58.90
2019-02-16T02:42:26.162Z,58.90
2019-02-16T02:44:01.373Z,58.90
2019-02-16T02:45:41.720Z,58.90
2019-02-16T02:47:16.945Z,58.90
2019-02-16T02:48:52.161Z,58.90
2019-02-16T02:50:27.384Z,59.00
2019-02-16T02:52:02.601Z,59.00
2019-02-16T02:53:37.831Z,59.10
2019-02-16T02:55:13.046Z,59.00
2019-02-16T02:56:48.260Z,59.10
2019-02-16T02:58:23.805Z,59.00
2019-02-16T02:59:58.984Z,59.10
2019-02-16T03:01:34.558Z,59.10
2019-02-16T03:03:09.944Z,59.10
2019-02-16T03:04:45.167Z,59.10
2019-02-16T03:06:20.395Z,59.10
2019-02-16T03:07:55.600Z,59.00
2019-02-16T03:09:30.823Z,59.00
2019-02-16T03:11:06.043Z,59.10
2019-02-16T03:12:41.240Z,59.00
2019-02-16T03:14:16.458Z,59.00
2019-02-16T03:15:51.680Z,59.10
2019-02-16T03:17:26.923Z,59.00
2019-02-16T03:19:02.385Z,59.20
2019-02-16T03:20:37.631Z,59.20
2019-02-16T03:22:12.849Z,59.30
2019-02-16T03:23:48.067Z,59.40
2019-02-16T03:25:23.300Z,59.60
2019-02-16T03:27:06.061Z,59.90
2019-02-16T03:28:51.455Z,59.70
2019-02-16T03:30:45.844Z,59.80
2019-02-16T03:32:47.240Z,59.90
2019-02-16T03:34:47.669Z,60.30
2019-02-16T03:36:49.623Z,60.00
2019-02-16T03:38:42.098Z,60.20
2019-02-16T03:40:17.622Z,60.50
2019-02-16T03:41:52.829Z,60.70
2019-02-16T03:43:28.048Z,60.80
2019-02-16T03:45:03.535Z,61.10
2019-02-16T03:46:38.758Z,61.40
2019-02-16T03:48:13.936Z,61.40
2019-02-16T03:49:49.464Z,61.40
2019-02-16T03:51:24.963Z,61.40
2019-02-16T03:53:00.182Z,61.40
2019-02-16T03:54:35.391Z,61.40
2019-02-16T03:56:10.613Z,61.30
2019-02-16T03:57:45.828Z,61.50
2019-02-16T03:59:21.033Z,61.60
2019-02-16T04:00:56.267Z,61.60
2019-02-16T04:02:31.740Z,61.80
2019-02-16T04:04:06.988Z,62.00
2019-02-16T04:05:42.210Z,62.00
2019-02-16T04:07:17.685Z,62.20
2019-02-16T04:08:52.912Z,62.30
2019-02-16T04:10:28.116Z,62.10
2019-02-16T04:12:03.617Z,62.30
2019-02-16T04:13:38.794Z,62.60
2019-02-16T04:15:14.285Z,62.70
2019-02-16T04:16:49.468Z,62.70
2019-02-16T04:18:24.669Z,62.60
2019-02-16T04:19:59.891Z,62.50
2019-02-16T04:21:35.080Z,62.30
2019-02-16T04:23:10.620Z,63.00
2019-02-16T04:24:45.814Z,62.20
2019-02-16T04:26:21.034Z,62.20
2019-02-16T04:27:56.256Z,62.20
2019-02-16T04:29:31.480Z,62.50
2019-02-16T04:31:06.701Z,62.50
2019-02-16T04:32:41.914Z,62.40
2019-02-16T04:34:17.113Z,62.30
2019-02-16T04:35:52.331Z,62.20
2019-02-16T04:37:27.550Z,62.20
2019-02-16T04:39:04.613Z,62.40
2019-02-16T04:40:40.982Z,62.40
2019-02-16T04:42:16.469Z,62.40
2019-02-16T04:43:51.689Z,62.40
2019-02-16T04:45:27.168Z,62.40
2019-02-16T04:47:02.400Z,62.50
2019-02-16T04:48:37.618Z,62.40
2019-02-16T04:50:12.837Z,62.40
2019-02-16T04:51:48.285Z,62.50
2019-02-16T04:53:23.555Z,62.50
2019-02-16T04:54:58.766Z,62.50
2019-02-16T04:56:34.413Z,62.50
2019-02-16T04:58:09.654Z,62.60
2019-02-16T04:59:44.874Z,62.80
2019-02-16T05:01:20.089Z,62.70
2019-02-16T05:02:56.680Z,62.90
2019-02-16T05:04:32.219Z,63.00
2019-02-16T05:06:07.749Z,63.10
2019-02-16T05:07:42.949Z,63.10
2019-02-16T05:09:18.176Z,62.90
2019-02-16T05:10:53.391Z,63.00
2019-02-16T05:12:28.614Z,63.00
2019-02-16T05:14:04.122Z,63.20
2019-02-16T05:15:39.319Z,63.30
2019-02-16T05:17:14.533Z,63.10
2019-02-16T05:18:49.755Z,63.20
2019-02-16T05:20:24.976Z,63.30
2019-02-16T05:22:00.181Z,63.40
2019-02-16T05:23:35.412Z,62.70
2019-02-16T05:25:11.366Z,63.50
2019-02-16T05:26:46.570Z,63.40
2019-02-16T05:28:21.771Z,63.40
2019-02-16T05:29:57.367Z,63.40
2019-02-16T05:31:32.588Z,63.60
2019-02-16T05:33:07.807Z,63.40
2019-02-16T05:34:43.030Z,63.60
2019-02-16T05:36:18.243Z,63.60
2019-02-16T05:37:53.467Z,63.60
2019-02-16T05:39:28.688Z,63.50
2019-02-16T05:41:03.909Z,63.70
2019-02-16T05:42:39.416Z,63.70
2019-02-16T05:44:14.701Z,63.60
2019-02-16T05:45:49.991Z,63.50
2019-02-16T05:47:25.250Z,63.40
2019-02-16T05:49:00.453Z,63.90
2019-02-16T05:50:35.670Z,62.90
2019-02-16T05:52:11.705Z,63.70
2019-02-16T05:53:46.920Z,63.70
2019-02-16T05:55:22.140Z,63.60
2019-02-16T05:56:57.359Z,63.70
2019-02-16T05:58:32.589Z,63.80
2019-02-16T06:00:11.894Z,63.80
2019-02-16T06:01:53.599Z,63.70
2019-02-16T06:03:24.211Z,63.70
2019-02-16T06:05:00.411Z,63.70
2019-02-16T06:06:35.615Z,63.60
2019-02-16T06:08:11.735Z,63.60
2019-02-16T06:09:46.952Z,63.60
2019-02-16T06:11:22.172Z,63.50
2019-02-16T06:12:57.389Z,63.50
2019-02-16T06:14:32.612Z,63.50
2019-02-16T06:16:07.826Z,63.60
2019-02-16T06:17:43.041Z,63.80
2019-02-16T06:19:18.266Z,64.80
2019-02-16T06:20:53.489Z,63.60
2019-02-16T06:22:28.757Z,64.30
2019-02-16T06:24:03.930Z,64.20
2019-02-16T06:25:39.145Z,64.30
2019-02-16T06:27:14.365Z,64.30
2019-02-16T06:28:49.581Z,64.40
2019-02-16T06:30:24.824Z,64.40
2019-02-16T06:32:00.027Z,64.70
2019-02-16T06:33:35.249Z,64.80
2019-02-16T06:35:12.081Z,64.80
2019-02-16T06:36:47.262Z,64.90
2019-02-16T06:38:22.450Z,65.20
2019-02-16T06:39:57.644Z,65.00
2019-02-16T06:41:33.154Z,65.10
2019-02-16T06:43:08.687Z,65.20
2019-02-16T06:44:45.196Z,65.30
2019-02-16T06:46:20.414Z,65.60
2019-02-16T06:47:55.598Z,65.60
2019-02-16T06:49:30.786Z,65.50
2019-02-16T06:51:05.984Z,65.40
2019-02-16T06:52:42.300Z,65.50
2019-02-16T06:54:17.502Z,65.90
2019-02-16T06:55:54.342Z,65.70
2019-02-16T06:57:30.463Z,66.00
2019-02-16T06:59:05.730Z,66.00
2019-02-16T07:00:40.953Z,66.30
2019-02-16T07:02:16.121Z,66.40
2019-02-16T07:03:51.623Z,66.40
2019-02-16T07:05:26.832Z,66.40
2019-02-16T07:07:02.043Z,66.20
2019-02-16T07:08:37.262Z,66.00
2019-02-16T07:10:12.495Z,65.90
2019-02-16T07:11:47.684Z,65.80
2019-02-16T07:13:22.857Z,65.60
2019-02-16T07:14:58.052Z,65.50
2019-02-16T07:16:34.890Z,65.40
2019-02-16T07:18:14.709Z,65.30
2019-02-16T07:19:51.279Z,65.20
2019-02-16T07:21:26.763Z,65.20
2019-02-16T07:23:01.982Z,64.90
2019-02-16T07:24:37.209Z,64.80
2019-02-16T07:26:12.467Z,64.90
2019-02-16T07:27:47.671Z,64.90
2019-02-16T07:29:22.891Z,64.70
2019-02-16T07:30:58.105Z,64.60
2019-02-16T07:32:33.269Z,64.30
2019-02-16T07:34:08.452Z,64.10
2019-02-16T07:35:43.636Z,63.80
2019-02-16T07:37:18.812Z,63.40
2019-02-16T07:38:54.002Z,63.00
2019-02-16T07:40:29.244Z,63.00
2019-02-16T07:42:04.447Z,62.80
2019-02-16T07:43:50.036Z,62.60
2019-02-16T07:45:40.996Z,62.00
2019-02-16T07:47:20.502Z,61.80
2019-02-16T07:48:57.573Z,61.40
2019-02-16T07:50:34.398Z,61.30
2019-02-16T07:52:17.118Z,60.80
2019-02-16T07:53:59.629Z,60.40
2019-02-16T07:55:39.539Z,60.00
2019-02-16T07:57:23.404Z,59.60
2019-02-16T07:59:00.277Z,59.40
2019-02-16T08:00:43.062Z,59.00
2019-02-16T08:02:22.744Z,58.50
2019-02-16T08:03:59.635Z,58.20
2019-02-16T08:05:36.468Z,57.70
2019-02-16T08:07:20.085Z,57.10
2019-02-16T08:09:13.455Z,56.50
2019-02-16T08:10:52.975Z,55.90
2019-02-16T08:12:46.481Z,55.70
2019-02-16T08:14:26.393Z,55.40
2019-02-16T08:16:08.978Z,55.30
2019-02-16T08:17:54.869Z,54.90
2019-02-16T08:19:31.876Z,54.10
2019-02-16T08:21:14.721Z,53.80
2019-02-16T08:22:51.562Z,53.10
2019-02-16T08:24:44.702Z,52.50
2019-02-16T08:26:21.606Z,52.00
2019-02-16T08:27:58.461Z,51.10
2019-02-16T08:29:37.926Z,50.50
2019-02-16T08:31:17.976Z,50.00
2019-02-16T08:32:54.824Z,49.20
2019-02-16T08:34:49.734Z,49.00
2019-02-16T08:36:41.963Z,48.80
2019-02-16T08:38:19.182Z,48.90
2019-02-16T08:39:58.715Z,48.40
2019-02-16T08:41:44.730Z,47.90
2019-02-16T08:43:30.582Z,48.00
2019-02-16T08:45:14.990Z,48.10
2019-02-16T08:47:08.461Z,48.10
2019-02-16T08:48:48.086Z,48.20
2019-02-16T08:50:24.916Z,47.90
2019-02-16T08:52:04.664Z,47.80
2019-02-16T08:53:49.820Z,47.70
2019-02-16T08:55:23.299Z,47.50
2019-02-16T08:57:16.623Z,47.40
2019-02-16T08:59:02.535Z,47.40
2019-02-16T09:00:39.374Z,47.40
2019-02-16T09:02:16.262Z,47.80
2019-02-16T09:03:53.099Z,47.10
2019-02-16T09:05:46.336Z,47.00
2019-02-16T09:07:32.190Z,46.90
2019-02-16T09:09:12.095Z,46.70
2019-02-16T09:10:48.974Z,46.80
2019-02-16T09:12:28.820Z,46.60
2019-02-16T09:14:14.479Z,46.50
2019-02-16T09:15:54.020Z,46.60
2019-02-16T09:17:30.926Z,46.40
2019-02-16T09:19:08.007Z,46.20
2019-02-16T09:20:45.347Z,45.90
2019-02-16T09:22:22.548Z,45.60
2019-02-16T09:24:03.073Z,45.40
2019-02-16T09:25:56.659Z,45.10
2019-02-16T09:27:42.540Z,45.30
2019-02-16T09:29:25.596Z,45.30
2019-02-16T09:31:02.401Z,45.10
2019-02-16T09:32:39.401Z,44.90
2019-02-16T09:34:19.388Z,45.40
2019-02-16T09:36:02.540Z,44.30
2019-02-16T09:37:42.339Z,43.90
2019-02-16T09:39:21.999Z,43.90
2019-02-16T09:40:58.818Z,43.60
2019-02-16T09:42:38.707Z,43.60
2019-02-16T09:44:18.243Z,43.50
2019-02-16T09:45:58.071Z,43.70
2019-02-16T09:47:34.944Z,43.80
2019-02-16T09:49:11.824Z,43.40
2019-02-16T09:50:48.670Z,43.10
2019-02-16T09:52:25.520Z,42.80
2019-02-16T09:54:14.404Z,42.70
2019-02-16T09:55:51.255Z,43.20
2019-02-16T09:57:34.001Z,42.50
2019-02-16T09:59:10.864Z,42.50
2019-02-16T10:00:56.802Z,42.40
2019-02-16T10:02:39.678Z,42.60
2019-02-16T10:04:16.555Z,42.60
2019-02-16T10:05:53.714Z,42.40
2019-02-16T10:07:30.686Z,42.40
2019-02-16T10:09:10.673Z,42.40
2019-02-16T10:10:50.145Z,42.40
2019-02-16T10:12:29.933Z,42.40
2019-02-16T10:14:06.767Z,42.70
2019-02-16T10:15:43.654Z,42.50
2019-02-16T10:17:20.568Z,42.60
2019-02-16T10:19:03.092Z,42.70
2019-02-16T10:20:48.942Z,42.80
2019-02-16T10:22:31.797Z,43.00
2019-02-16T10:24:17.376Z,42.80
2019-02-16T10:25:47.144Z,42.40
2019-02-16T10:27:27.174Z,42.20
2019-02-16T10:29:20.146Z,42.40
2019-02-16T10:31:02.910Z,42.10
2019-02-16T10:32:56.125Z,41.60
2019-02-16T10:34:41.784Z,41.60
2019-02-16T10:36:18.624Z,41.60
2019-02-16T10:38:10.561Z,41.60
2019-02-16T10:40:05.503Z,41.60
2019-02-16T10:41:51.623Z,41.80
2019-02-16T10:43:40.804Z,41.70
2019-02-16T10:45:33.759Z,42.50
2019-02-16T10:47:13.724Z,41.30
2019-02-16T10:48:50.658Z,40.90
2019-02-16T10:50:27.543Z,41.30
2019-02-16T10:52:04.696Z,41.10
2019-02-16T10:53:56.614Z,41.00
2019-02-16T10:55:42.578Z,41.10
2019-02-16T10:57:36.074Z,41.30
2019-02-16T10:59:31.269Z,41.20
2019-02-16T11:01:08.161Z,41.80
2019-02-16T11:02:49.540Z,40.90
2019-02-16T11:04:38.111Z,41.00
2019-02-16T11:06:13.547Z,41.00
2019-02-16T11:07:50.663Z,41.10
2019-02-16T11:09:27.516Z,41.10
2019-02-16T11:11:06.964Z,40.90
2019-02-16T11:12:55.866Z,40.70
2019-02-16T11:14:41.526Z,40.50
2019-02-16T11:16:25.669Z,39.90
2019-02-16T11:18:20.669Z,39.90
2019-02-16T11:20:09.642Z,39.60
2019-02-16T11:21:49.362Z,39.20
2019-02-16T11:23:29.150Z,39.30
2019-02-16T11:25:13.157Z,39.10
2019-02-16T11:26:50.075Z,39.10
2019-02-16T11:28:43.111Z,39.20
2019-02-16T11:30:20.935Z,38.90
2019-02-16T11:31:57.791Z,38.90
2019-02-16T11:33:34.633Z,39.10
2019-02-16T11:35:15.508Z,38.70
2019-02-16T11:36:52.359Z,38.70
2019-02-16T11:38:47.506Z,38.50
2019-02-16T11:40:32.954Z,38.30
2019-02-16T11:42:21.926Z,38.10
2019-02-16T11:44:10.261Z,38.10
2019-02-16T11:45:47.337Z,38.10
2019-02-16T11:47:33.356Z,38.00
2019-02-16T11:49:10.496Z,37.90
2019-02-16T11:50:47.362Z,37.80
2019-02-16T11:52:24.244Z,37.50
2019-02-16T11:54:16.208Z,37.30
2019-02-16T11:56:09.116Z,37.40
2019-02-16T11:57:47.140Z,37.60
2019-02-16T11:59:24.278Z,37.40
2019-02-16T12:01:01.183Z,37.40
2019-02-16T12:02:40.566Z,37.50
2019-02-16T12:04:20.337Z,37.20
2019-02-16T12:05:57.301Z,37.00
2019-02-16T12:07:36.899Z,37.10
2019-02-16T12:09:13.803Z,37.30
2019-02-16T12:11:07.180Z,37.00
2019-02-16T12:12:46.658Z,36.80
2019-02-16T12:14:41.611Z,36.90
2019-02-16T12:16:18.476Z,36.90
2019-02-16T12:17:58.036Z,36.80
2019-02-16T12:19:43.947Z,36.80
2019-02-16T12:21:20.832Z,36.60
2019-02-16T12:23:09.504Z,36.70
2019-02-16T12:25:05.427Z,36.50
2019-02-16T12:26:43.089Z,36.70
2019-02-16T12:28:22.548Z,36.90
2019-02-16T12:29:59.649Z,37.00
2019-02-16T12:31:54.455Z,37.10
2019-02-16T12:33:31.271Z,37.10
2019-02-16T12:35:24.713Z,37.30
2019-02-16T12:37:07.398Z,37.30
2019-02-16T12:38:47.207Z,37.40
2019-02-16T12:40:24.076Z,37.50
2019-02-16T12:42:00.950Z,37.60
2019-02-16T12:43:40.440Z,37.70
2019-02-16T12:45:26.113Z,37.90
2019-02-16T12:47:02.953Z,38.00
2019-02-16T12:48:39.777Z,38.00
2019-02-16T12:50:20.084Z,38.30
2019-02-16T12:51:59.680Z,38.20
2019-02-16T12:53:48.231Z,38.30
2019-02-16T12:55:31.235Z,38.40
2019-02-16T12:57:08.053Z,38.20
2019-02-16T12:58:44.944Z,38.20
2019-02-16T13:00:22.109Z,38.20
2019-02-16T13:02:11.739Z,38.10
2019-02-16T13:04:00.380Z,38.20
2019-02-16T13:05:53.116Z,38.30
2019-02-16T13:07:29.985Z,38.40
2019-02-16T13:09:10.643Z,38.40
2019-02-16T13:10:50.515Z,38.40
2019-02-16T13:12:43.589Z,38.40
2019-02-16T13:14:22.850Z,38.50
2019-02-16T13:15:59.743Z,38.60
2019-02-16T13:17:39.486Z,38.50
2019-02-16T13:19:16.347Z,38.50
2019-02-16T13:20:58.901Z,38.40
2019-02-16T13:22:35.754Z,38.30
2019-02-16T13:24:12.576Z,39.10
2019-02-16T13:26:05.338Z,38.40
2019-02-16T13:27:59.093Z,38.60
2019-02-16T13:29:35.933Z,38.70
2019-02-16T13:31:24.812Z,38.60
2019-02-16T13:33:08.333Z,38.40
2019-02-16T13:34:54.912Z,38.60
2019-02-16T13:36:31.751Z,38.60
2019-02-16T13:44:29.492Z,38.60
2019-02-16T13:46:24.747Z,38.90
2019-02-16T13:49:43.904Z,39.00
2019-02-16T13:51:32.966Z,38.90
2019-02-16T13:53:09.799Z,39.50
2019-02-16T13:54:46.645Z,39.10
2019-02-16T13:56:39.488Z,38.50
2019-02-16T13:58:16.325Z,38.70
2019-02-16T13:59:56.362Z,39.10
2019-02-16T14:01:49.969Z,38.90
2019-02-16T14:03:43.192Z,39.00
2019-02-16T14:05:36.795Z,38.90
2019-02-16T14:07:29.616Z,38.30
2019-02-16T14:09:09.498Z,38.50
2019-02-16T14:10:48.771Z,37.90
2019-02-16T14:12:26.010Z,38.20
2019-02-16T14:14:08.572Z,38.30
2019-02-16T14:15:47.901Z,38.20
2019-02-16T14:17:33.721Z,38.30
2019-02-16T14:19:08.924Z,38.30
2019-02-16T14:20:44.385Z,37.80
2019-02-16T14:22:19.587Z,38.20
2019-02-16T14:23:54.860Z,38.10
2019-02-16T14:25:31.695Z,37.90
2019-02-16T14:27:06.881Z,37.80
2019-02-16T14:28:42.198Z,37.80
2019-02-16T14:30:17.422Z,37.40
2019-02-16T14:31:52.892Z,37.90
2019-02-16T14:33:28.370Z,38.00
2019-02-16T14:35:03.955Z,37.80
2019-02-16T14:36:39.148Z,37.80
2019-02-16T14:40:55.950Z,37.60
2019-02-16T14:42:35.185Z,37.10
2019-02-16T14:44:10.491Z,36.90
2019-02-16T14:45:46.171Z,37.10
2019-02-16T14:47:21.586Z,36.90
2019-02-16T14:48:56.851Z,36.80
2019-02-16T14:50:32.119Z,37.10
2019-02-16T14:53:42.779Z,36.80
2019-02-16T14:55:19.293Z,36.30
2019-02-16T14:56:54.656Z,36.50
2019-02-16T15:00:10.810Z,36.80
2019-02-16T15:01:46.375Z,36.50
2019-02-16T15:03:21.601Z,36.60
2019-02-16T15:04:58.590Z,36.80
2019-02-16T15:06:33.823Z,36.10
2019-02-16T15:11:19.726Z,35.90
2019-02-16T15:14:29.918Z,36.10
2019-02-16T15:16:05.342Z,35.80
2019-02-16T15:17:40.640Z,35.80
2019-02-16T15:19:16.006Z,36.40
2019-02-16T15:20:51.221Z,36.30
2019-02-16T15:22:28.094Z,36.40
2019-02-16T15:24:03.651Z,36.70
2019-02-16T15:25:38.881Z,36.50
2019-02-16T15:27:16.134Z,36.40
2019-02-16T15:28:52.990Z,36.90
2019-02-16T15:30:28.225Z,36.50
2019-02-16T15:32:03.472Z,36.60
2019-02-16T15:35:14.519Z,36.40
2019-02-16T15:36:49.742Z,36.70
2019-02-16T15:38:29.282Z,36.60
2019-02-16T15:41:41.042Z,36.80
2019-02-16T15:43:16.338Z,37.00
2019-02-16T15:44:51.596Z,37.00
2019-02-16T15:48:04.739Z,37.00
2019-02-16T15:49:41.159Z,37.20
2019-02-16T15:52:53.800Z,37.20
2019-02-16T15:54:31.026Z,37.70
2019-02-16T15:56:10.547Z,37.80
2019-02-16T15:57:43.289Z,37.80
2019-02-16T15:59:18.552Z,37.60
2019-02-16T16:00:53.817Z,37.80
2019-02-16T16:02:30.784Z,37.80
2019-02-16T16:04:06.084Z,38.30
2019-02-16T16:05:41.404Z,38.50
2019-02-16T16:07:16.653Z,38.40
2019-02-16T16:08:56.292Z,38.10
2019-02-16T16:10:34.267Z,38.80
2019-02-16T16:12:13.918Z,38.90
2019-02-16T16:14:09.043Z,38.70
2019-02-16T16:16:02.934Z,38.70
2019-02-16T16:17:54.854Z,38.80
2019-02-16T16:19:33.391Z,39.10
2019-02-16T16:21:10.341Z,39.20
2019-02-16T16:24:42.808Z,39.50
2019-02-16T16:26:19.838Z,39.40
2019-02-16T16:28:05.285Z,39.50
2019-02-16T16:29:44.784Z,40.00
2019-02-16T16:31:24.614Z,39.50
2019-02-16T16:33:17.960Z,39.50
2019-02-16T16:34:54.840Z,39.20
2019-02-16T16:36:37.728Z,39.60
2019-02-16T16:38:17.469Z,39.20
2019-02-16T16:39:54.315Z,39.20
2019-02-16T16:41:32.277Z,39.40
2019-02-16T16:43:12.077Z,39.70
2019-02-16T16:44:54.589Z,39.90
2019-02-16T16:46:34.252Z,39.50
2019-02-16T16:48:11.153Z,40.10
2019-02-16T16:49:48.036Z,39.60
2019-02-16T16:51:30.964Z,39.90
2019-02-16T16:53:07.847Z,40.10
2019-02-16T16:55:00.799Z,40.10
2019-02-16T16:56:37.848Z,39.80
2019-02-16T16:58:17.813Z,40.30
2019-02-16T17:00:03.733Z,40.30
2019-02-16T17:01:41.671Z,40.00
2019-02-16T17:03:35.501Z,40.00
2019-02-16T17:05:12.475Z,40.40
2019-02-16T17:07:05.500Z,40.10
2019-02-16T17:08:42.497Z,40.20
2019-02-16T17:10:34.652Z,40.50
2019-02-16T17:12:34.866Z,40.50
2019-02-16T17:14:31.713Z,40.60
2019-02-16T17:16:17.252Z,40.70
2019-02-16T17:18:13.715Z,40.70
2019-02-16T17:19:47.395Z,41.00
2019-02-16T17:21:43.571Z,40.90
2019-02-16T17:23:22.198Z,40.90
2019-02-16T17:25:04.911Z,41.40
2019-02-16T17:26:50.473Z,40.80
2019-02-16T17:28:34.969Z,41.40
2019-02-16T17:30:18.428Z,41.40
2019-02-16T17:33:59.086Z,41.70
2019-02-16T17:35:44.677Z,41.70
2019-02-16T17:37:24.348Z,41.80
2019-02-16T17:39:03.800Z,41.90
2019-02-16T17:40:40.643Z,41.90
2019-02-16T17:42:33.771Z,42.00
2019-02-16T17:44:10.690Z,42.20
2019-02-16T17:45:47.634Z,42.30
2019-02-16T17:47:24.538Z,42.10
2019-02-16T17:49:10.490Z,42.50
2019-02-16T17:50:50.605Z,42.50
2019-02-16T17:52:30.316Z,42.70
2019-02-16T17:54:10.172Z,42.40
2019-02-16T17:55:51.929Z,42.90
2019-02-16T17:57:44.950Z,42.90
2019-02-16T17:59:36.804Z,42.80
2019-02-16T18:01:32.107Z,43.20
2019-02-16T18:03:21.042Z,43.20
2019-02-16T18:05:10.054Z,43.40
2019-02-16T18:06:51.079Z,43.50
2019-02-16T18:08:34.860Z,43.60
2019-02-16T18:10:11.764Z,43.60
2019-02-16T18:11:48.662Z,43.60
2019-02-16T18:13:41.912Z,43.80
2019-02-16T18:15:21.731Z,43.80
2019-02-16T18:17:18.194Z,43.90
2019-02-16T18:19:10.688Z,43.50
2019-02-16T18:20:51.106Z,44.00
2019-02-16T18:22:30.849Z,43.60
2019-02-16T18:24:16.671Z,44.20
2019-02-16T18:25:57.221Z,44.90
2019-02-16T18:27:37.269Z,44.30
2019-02-16T18:29:14.600Z,43.90
2019-02-16T18:31:06.584Z,44.10
2019-02-16T18:32:46.410Z,44.60
2019-02-16T18:34:26.069Z,44.80
2019-02-16T18:36:03.457Z,44.80
2019-02-16T18:37:43.210Z,44.90
2019-02-16T18:39:20.265Z,44.40
2019-02-16T18:41:04.824Z,45.00
2019-02-16T18:42:44.616Z,45.10
2019-02-16T18:44:39.516Z,44.80
2019-02-16T18:46:22.072Z,44.90
2019-02-16T18:48:04.702Z,44.90
2019-02-16T18:49:59.688Z,45.40
2019-02-16T18:51:45.240Z,45.10
2019-02-16T18:53:25.313Z,45.80
2019-02-16T18:55:19.872Z,45.70
2019-02-16T18:57:07.202Z,46.10
2019-02-16T18:58:44.088Z,45.70
2019-02-16T19:00:21.000Z,45.40
2019-02-16T19:01:57.921Z,46.10
2019-02-16T19:03:40.594Z,45.60
2019-02-16T19:05:21.481Z,46.00
2019-02-16T19:06:58.451Z,45.70
2019-02-16T19:08:35.409Z,45.90
2019-02-16T19:10:12.301Z,46.60
2019-02-16T19:11:57.265Z,46.90
2019-02-16T19:13:39.865Z,46.20
2019-02-16T19:15:32.697Z,47.10
2019-02-16T19:17:12.262Z,46.80
2019-02-16T19:18:52.588Z,47.00
2019-02-16T19:20:32.289Z,47.10
2019-02-16T19:22:18.100Z,47.10
2019-02-16T19:23:57.267Z,47.20
2019-02-16T19:25:34.201Z,47.90
2019-02-16T19:27:16.680Z,47.40
2019-02-16T19:28:56.272Z,47.50
2019-02-16T19:30:49.462Z,47.60
2019-02-16T19:32:35.519Z,47.70
2019-02-16T19:34:21.987Z,47.80
2019-02-16T19:36:01.345Z,47.90
2019-02-16T19:37:41.072Z,47.50
2019-02-16T19:39:17.977Z,48.00
2019-02-16T19:40:54.846Z,48.10
2019-02-16T19:42:40.891Z,48.20
2019-02-16T19:44:20.669Z,48.30
2019-02-16T19:46:12.599Z,48.50
2019-02-16T19:47:59.196Z,48.50
2019-02-16T19:49:42.587Z,48.10
2019-02-16T19:51:20.414Z,48.70
2019-02-16T19:53:04.663Z,48.60
2019-02-16T19:56:43.077Z,49.30
2019-02-16T19:58:39.177Z,49.30
2019-02-16T20:00:19.495Z,50.00
2019-02-16T20:02:16.003Z,49.50
2019-02-16T20:03:58.856Z,49.80
2019-02-16T20:05:50.206Z,49.80
2019-02-16T20:07:29.125Z,49.20
2019-02-16T20:09:11.200Z,49.30
2019-02-16T20:10:56.786Z,50.00
2019-02-16T20:12:33.874Z,49.90
2019-02-16T20:14:17.136Z,50.00
2019-02-16T20:15:57.918Z,50.10
2019-02-16T20:17:37.722Z,50.10
2019-02-16T20:19:23.745Z,50.30
2019-02-16T20:21:27.449Z,49.90
2019-02-16T20:23:19.574Z,50.50
2019-02-16T20:25:02.592Z,50.00
2019-02-16T20:27:07.861Z,50.60
2019-02-16T20:28:39.193Z,50.80
2019-02-16T20:30:16.906Z,51.00
2019-02-16T20:33:46.838Z,50.50
2019-02-16T20:35:28.100Z,50.90
2019-02-16T20:37:09.657Z,51.30
2019-02-16T20:38:54.296Z,51.40
2019-02-16T20:40:30.988Z,51.30
2019-02-16T20:42:12.776Z,51.00
2019-02-16T20:43:55.746Z,51.70
2019-02-16T20:45:32.559Z,51.60
2019-02-16T20:47:15.613Z,51.20
2019-02-16T20:51:03.330Z,52.00
2019-02-16T20:52:46.098Z,51.90
2019-02-16T20:54:32.195Z,51.90
2019-02-16T20:56:14.693Z,51.90
2019-02-16T20:57:54.537Z,52.00
2019-02-16T20:59:40.359Z,52.30
2019-02-16T21:01:26.234Z,52.40
2019-02-16T21:03:05.971Z,52.50
2019-02-16T21:04:55.072Z,52.70
2019-02-16T21:06:44.459Z,52.70
2019-02-16T21:08:39.290Z,53.40
2019-02-16T21:10:24.687Z,53.00
2019-02-16T21:12:17.791Z,53.00
2019-02-16T21:14:00.973Z,52.90
2019-02-16T21:15:43.683Z,52.80
2019-02-16T21:17:21.199Z,52.80
2019-02-16T21:18:58.987Z,52.80
2019-02-16T21:20:53.422Z,52.70
2019-02-16T21:22:42.627Z,52.70
2019-02-16T21:24:37.481Z,52.60
2019-02-16T21:26:14.352Z,52.40
2019-02-16T21:27:58.054Z,52.30
2019-02-16T21:29:36.734Z,52.40
2019-02-16T21:31:18.233Z,52.40
2019-02-16T21:32:58.955Z,52.50
2019-02-16T21:34:35.792Z,52.30
2019-02-16T21:36:12.611Z,52.50
2019-02-16T21:37:55.427Z,52.60
2019-02-16T21:39:35.168Z,52.40
2019-02-16T21:41:11.994Z,52.50
2019-02-16T21:42:48.884Z,52.50
2019-02-16T21:44:27.330Z,52.50
2019-02-16T21:46:09.890Z,52.50
2019-02-16T21:47:51.296Z,52.50
2019-02-16T21:49:28.163Z,52.50
2019-02-16T21:51:04.972Z,52.60
2019-02-16T21:52:47.593Z,52.60
2019-02-16T21:54:42.471Z,52.70
2019-02-16T21:56:19.339Z,53.50
2019-02-16T21:58:08.151Z,52.90